This is the latest recevied weather packets stored in our database for station/object K4KMJ. If no packets are shown the sender has not sent any weather packets the latest 10 day(s).
| Time | Temp. | Humidity | Pressure | Rain* | Wind** | Luminosity | Snow |
|---|---|---|---|---|---|---|---|
| 1777758228 | 20.56° C | 99% | 1012.3 hPa | 2.29 mm | - | 67 W/m² | - |
| 1777757926 | 20.56° C | 99% | 1012 hPa | 2.29 mm | - | 50 W/m² | - |
| 1777757623 | 20.56° C | 99% | 1012.1 hPa | 2.29 mm | - | 55 W/m² | - |
| 1777757322 | 20.56° C | 99% | 1011.8 hPa | 2.29 mm | - | 60 W/m² | - |
| 1777757020 | 20.56° C | 99% | 1011.7 hPa | 2.29 mm | - | 60 W/m² | - |
| 1777756717 | 20.56° C | 99% | 1011.6 hPa | 3.05 mm | - | 67 W/m² | - |
| 1777756412 | 20.56° C | 99% | 1011.4 hPa | 3.05 mm | - | 88 W/m² | - |
| 1777756110 | 20.56° C | 98% | 1010.9 hPa | 2.29 mm | - | 92 W/m² | - |
| 1777755807 | 20.56° C | 98% | 1011.2 hPa | 3.05 mm | - | 75 W/m² | - |
| 1777755504 | 20.56° C | 98% | 1011.7 hPa | 2.29 mm | - | 63 W/m² | - |
| 1777755200 | 20° C | 98% | 1012.1 hPa | 3.05 mm | - | 33 W/m² | - |
| 1777754897 | 20° C | 97% | 1012.8 hPa | 2.29 mm | - | 24 W/m² | - |
| 1777754594 | 20° C | 97% | 1013.5 hPa | 3.05 mm | - | 17 W/m² | - |
| 1777754292 | 20° C | 97% | 1013.4 hPa | 3.05 mm | - | 17 W/m² | - |
| 1777753989 | 20.56° C | 96% | 1013.4 hPa | 2.29 mm | - | 16 W/m² | - |
| 1777753689 | 20.56° C | 96% | 1013.7 hPa | 3.05 mm | - | 20 W/m² | - |
| 1777753387 | 20.56° C | 96% | 1013.8 hPa | 3.05 mm | - | 31 W/m² | - |
| 1777753085 | 20.56° C | 95% | 1013.8 hPa | 2.29 mm | - | 33 W/m² | - |
| 1777752781 | 20.56° C | 94% | 1013.7 hPa | 2.29 mm | - | 20 W/m² | - |
| 1777752477 | 20.56° C | 94% | 1013.1 hPa | 3.56 mm | - | 43 W/m² | - |
| 1777752173 | 20.56° C | 93% | 1013 hPa | 6.1 mm | - | 44 W/m² | - |
| 1777751872 | 20.56° C | 91% | 1012.6 hPa | 10.16 mm | - | 37 W/m² | - |
| 1777751568 | 21.67° C | 89% | 1014.1 hPa | 3.05 mm | - | 24 W/m² | - |
| 1777751264 | 21.67° C | 88% | 1014.2 hPa | 1.78 mm | - | 22 W/m² | - |
| 1777750962 | 22.22° C | 86% | 1013.2 hPa | 0 mm | - | 40 W/m² | - |
* Rain latest hour (hover to see other rain measurements)
** Current wind speed in m/s (hover to see current wind gust speed)